TAP91SR LPPT-LPMA
Flight info
| Callsign | TAP91SR |
|---|---|
| Flight time | 0h 59m |
| Altitude | 37000 |
| Route | ULVOT DCT GALPA DCT RAKUN |
| Aircraft | A320/M-SDE3FGHIRWY/LB1 |
Departure
| Time | 2026-05-06 14:29 |
|---|---|
| Airport | Lisbon Humberto Delgado Airport (LPPT) |
Arrival
| Time | 2026-05-06 15:28 |
|---|---|
| Airport | Cristiano Ronaldo International Airport (LPMA) |
| Time | Latitude | Longitude | Altitude | Speed | Heading |
|---|---|---|---|---|---|
| 2026-05-06 14:10 | 38.76779 | -9.13575 | 350 ft | 0 kts | 258° |
| 2026-05-06 14:19 | 38.76784 | -9.13545 | 353 ft | 4 kts | 257° |
| 2026-05-06 14:20 | 38.76790 | -9.13512 | 352 ft | 4 kts | 252° |
| 2026-05-06 14:20 | 38.76801 | -9.13481 | 351 ft | 4 kts | 228° |
| 2026-05-06 14:20 | 38.76816 | -9.13469 | 352 ft | 1 kts | 168° |
| 2026-05-06 14:20 | 38.76817 | -9.13469 | 352 ft | 0 kts | 168° |
| 2026-05-06 14:22 | 38.76769 | -9.13456 | 344 ft | 10 kts | 168° |
| 2026-05-06 14:22 | 38.76707 | -9.13440 | 344 ft | 8 kts | 171° |
| 2026-05-06 14:22 | 38.76664 | -9.13459 | 350 ft | 6 kts | 227° |
| 2026-05-06 14:23 | 38.76650 | -9.13510 | 345 ft | 11 kts | 261° |
| 2026-05-06 14:23 | 38.76630 | -9.13634 | 348 ft | 15 kts | 258° |
| 2026-05-06 14:23 | 38.76608 | -9.13772 | 346 ft | 17 kts | 258° |
| 2026-05-06 14:23 | 38.76583 | -9.13923 | 350 ft | 18 kts | 258° |
| 2026-05-06 14:24 | 38.76563 | -9.14003 | 350 ft | 11 kts | 237° |
| 2026-05-06 14:24 | 38.76503 | -9.14109 | 350 ft | 16 kts | 247° |
| 2026-05-06 14:24 | 38.76522 | -9.14262 | 338 ft | 20 kts | 295° |
| 2026-05-06 14:24 | 38.76564 | -9.14383 | 331 ft | 14 kts | 294° |
| 2026-05-06 14:25 | 38.76605 | -9.14410 | 334 ft | 6 kts | 16° |
| 2026-05-06 14:25 | 38.76614 | -9.14405 | 335 ft | 0 kts | 23° |
| 2026-05-06 14:28 | 38.76617 | -9.14404 | 332 ft | 4 kts | 23° |
| 2026-05-06 14:28 | 38.76754 | -9.14331 | 339 ft | 51 kts | 21° |
| 2026-05-06 14:28 | 38.77291 | -9.14042 | 360 ft | 114 kts | 22° |
| 2026-05-06 14:29 | 38.78191 | -9.13564 | 383 ft | 162 kts | 20° |
| 2026-05-06 14:29 | 38.79208 | -9.13013 | 1015 ft | 157 kts | 17° |
| 2026-05-06 14:29 | 38.80221 | -9.12473 | 1736 ft | 161 kts | 17° |
| 2026-05-06 14:29 | 38.81320 | -9.11892 | 2109 ft | 182 kts | 20° |
| 2026-05-06 14:30 | 38.82492 | -9.11028 | 2398 ft | 207 kts | 27° |
| 2026-05-06 14:30 | 38.83794 | -9.10022 | 2762 ft | 231 kts | 26° |
| 2026-05-06 14:30 | 38.85222 | -9.08913 | 3360 ft | 245 kts | 31° |
| 2026-05-06 14:30 | 38.86444 | -9.07323 | 4102 ft | 260 kts | 57° |
| 2026-05-06 14:31 | 38.86933 | -9.05073 | 4984 ft | 268 kts | 87° |
| 2026-05-06 14:31 | 38.86532 | -9.02724 | 5882 ft | 275 kts | 116° |
| 2026-05-06 14:31 | 38.85333 | -9.00806 | 6721 ft | 281 kts | 141° |
| 2026-05-06 14:31 | 38.83591 | -8.99667 | 7557 ft | 285 kts | 166° |
| 2026-05-06 14:32 | 38.81618 | -8.99579 | 8393 ft | 287 kts | 193° |
| 2026-05-06 14:32 | 38.79790 | -9.00569 | 9233 ft | 288 kts | 218° |
| 2026-05-06 14:32 | 38.78367 | -9.02359 | 10074 ft | 288 kts | 229° |
| 2026-05-06 14:32 | 38.76989 | -9.04344 | 10423 ft | 310 kts | 230° |
| 2026-05-06 14:33 | 38.75516 | -9.06471 | 10873 ft | 323 kts | 230° |
| 2026-05-06 14:33 | 38.74015 | -9.08641 | 11626 ft | 328 kts | 229° |
| 2026-05-06 14:33 | 38.72499 | -9.10831 | 12406 ft | 330 kts | 230° |
| 2026-05-06 14:33 | 38.70963 | -9.13039 | 13151 ft | 334 kts | 229° |
| 2026-05-06 14:34 | 38.69405 | -9.15267 | 13909 ft | 336 kts | 229° |
| 2026-05-06 14:34 | 38.67837 | -9.17505 | 14617 ft | 338 kts | 229° |
| 2026-05-06 14:34 | 38.66261 | -9.19751 | 15265 ft | 341 kts | 229° |
| 2026-05-06 14:34 | 38.64672 | -9.22023 | 15897 ft | 345 kts | 229° |
| 2026-05-06 14:35 | 38.63067 | -9.24314 | 16571 ft | 347 kts | 229° |
| 2026-05-06 14:35 | 38.61452 | -9.26618 | 17284 ft | 348 kts | 229° |
| 2026-05-06 14:35 | 38.59825 | -9.28936 | 17874 ft | 352 kts | 229° |
| 2026-05-06 14:35 | 38.58176 | -9.31284 | 18445 ft | 357 kts | 229° |
| 2026-05-06 14:36 | 38.56515 | -9.33652 | 18996 ft | 359 kts | 229° |
| 2026-05-06 14:36 | 38.54849 | -9.36026 | 19579 ft | 361 kts | 229° |
| 2026-05-06 14:36 | 38.53167 | -9.38422 | 20093 ft | 365 kts | 229° |
| 2026-05-06 14:36 | 38.51465 | -9.40844 | 20668 ft | 367 kts | 229° |
| 2026-05-06 14:37 | 38.49754 | -9.43272 | 21286 ft | 368 kts | 229° |
| 2026-05-06 14:37 | 38.48034 | -9.45711 | 21834 ft | 371 kts | 229° |
| 2026-05-06 14:37 | 38.46299 | -9.48174 | 22360 ft | 374 kts | 229° |
| 2026-05-06 14:37 | 38.44554 | -9.50650 | 22932 ft | 376 kts | 229° |
| 2026-05-06 14:38 | 38.42798 | -9.53141 | 23463 ft | 379 kts | 229° |
| 2026-05-06 14:38 | 38.41023 | -9.55654 | 23872 ft | 383 kts | 229° |
| 2026-05-06 14:38 | 38.39239 | -9.58174 | 23986 ft | 382 kts | 229° |
| 2026-05-06 14:38 | 38.38062 | -9.59836 | 24012 ft | 382 kts | 229° |
| 2026-05-06 14:39 | 38.35677 | -9.63199 | 24016 ft | 383 kts | 229° |
| 2026-05-06 14:39 | 38.34494 | -9.64864 | 24016 ft | 382 kts | 229° |
| 2026-05-06 14:39 | 38.32713 | -9.67372 | 24016 ft | 382 kts | 229° |
| 2026-05-06 14:39 | 38.30930 | -9.69879 | 24027 ft | 382 kts | 229° |
| 2026-05-06 14:40 | 38.29144 | -9.72391 | 24027 ft | 382 kts | 229° |
| 2026-05-06 14:40 | 38.27361 | -9.74895 | 24027 ft | 382 kts | 229° |
| 2026-05-06 14:40 | 38.25579 | -9.77399 | 24027 ft | 382 kts | 229° |
| 2026-05-06 14:40 | 38.23794 | -9.79909 | 24014 ft | 382 kts | 229° |
| 2026-05-06 14:41 | 38.22011 | -9.82415 | 24025 ft | 382 kts | 229° |
| 2026-05-06 14:41 | 38.20225 | -9.84919 | 24032 ft | 383 kts | 229° |
| 2026-05-06 14:41 | 38.18437 | -9.87424 | 24030 ft | 383 kts | 229° |
| 2026-05-06 14:41 | 38.16647 | -9.89932 | 24029 ft | 383 kts | 229° |
| 2026-05-06 14:42 | 38.14855 | -9.92438 | 24029 ft | 383 kts | 229° |
| 2026-05-06 14:42 | 38.13065 | -9.94943 | 24032 ft | 383 kts | 229° |
| 2026-05-06 14:42 | 38.11265 | -9.97459 | 24405 ft | 386 kts | 229° |
| 2026-05-06 14:42 | 38.09451 | -9.99990 | 24859 ft | 388 kts | 229° |
| 2026-05-06 14:43 | 38.07627 | -10.02529 | 25288 ft | 390 kts | 229° |
| 2026-05-06 14:43 | 38.05792 | -10.05082 | 25701 ft | 392 kts | 229° |
| 2026-05-06 14:43 | 38.03948 | -10.07646 | 26101 ft | 395 kts | 229° |
| 2026-05-06 14:43 | 38.02092 | -10.10225 | 26493 ft | 397 kts | 230° |
| 2026-05-06 14:44 | 38.00228 | -10.12812 | 26881 ft | 399 kts | 230° |
| 2026-05-06 14:44 | 37.98378 | -10.15381 | 27259 ft | 401 kts | 230° |
| 2026-05-06 14:44 | 37.96495 | -10.17998 | 27628 ft | 403 kts | 230° |
| 2026-05-06 14:45 | 37.92693 | -10.23265 | 28365 ft | 407 kts | 230° |
| 2026-05-06 14:45 | 37.90776 | -10.25912 | 28723 ft | 409 kts | 230° |
| 2026-05-06 14:45 | 37.88849 | -10.28569 | 29077 ft | 411 kts | 230° |
| 2026-05-06 14:45 | 37.86887 | -10.31275 | 29424 ft | 413 kts | 230° |
| 2026-05-06 14:46 | 37.84943 | -10.33962 | 29749 ft | 415 kts | 230° |
| 2026-05-06 14:46 | 37.82992 | -10.36659 | 30063 ft | 417 kts | 230° |
| 2026-05-06 14:46 | 37.81028 | -10.39367 | 30333 ft | 419 kts | 230° |
| 2026-05-06 14:46 | 37.79057 | -10.42082 | 30608 ft | 420 kts | 230° |
| 2026-05-06 14:47 | 37.77076 | -10.44807 | 30886 ft | 421 kts | 230° |
| 2026-05-06 14:47 | 37.75139 | -10.47466 | 31130 ft | 0 kts | 230° |
| 2026-05-06 14:47 | 36.88065 | -11.78144 | 31057 ft | 0 kts | 230° |
| 2026-05-06 14:47 | 36.86237 | -11.80690 | 31720 ft | 415 kts | 224° |
| 2026-05-06 14:48 | 36.65555 | -11.97348 | 31835 ft | 23928 kts | 212° |
| 2026-05-06 14:48 | 35.79412 | -12.64328 | 32065 ft | 416 kts | 217° |
| 2026-05-06 14:48 | 35.21875 | -13.21398 | 32172 ft | 398 kts | 219° |
| 2026-05-06 14:48 | 35.19759 | -13.23461 | 32996 ft | 385 kts | 234° |
| 2026-05-06 14:49 | 35.18348 | -13.26178 | 33140 ft | 379 kts | 249° |
| 2026-05-06 14:49 | 35.15962 | -13.32105 | 33063 ft | 403 kts | 240° |
| 2026-05-06 14:50 | 35.12507 | -13.37715 | 33077 ft | 422 kts | 237° |
| 2026-05-06 14:50 | 35.08876 | -13.43464 | 33083 ft | 430 kts | 237° |
| 2026-05-06 14:51 | 35.05206 | -13.49245 | 33077 ft | 431 kts | 237° |
| 2026-05-06 14:51 | 35.01517 | -13.55062 | 33092 ft | 435 kts | 237° |
| 2026-05-06 14:52 | 34.97821 | -13.60909 | 33078 ft | 435 kts | 237° |
| 2026-05-06 14:52 | 34.94097 | -13.66774 | 33089 ft | 434 kts | 237° |
| 2026-05-06 14:53 | 34.90389 | -13.72585 | 33092 ft | 434 kts | 237° |
| 2026-05-06 14:53 | 34.86712 | -13.78365 | 33092 ft | 434 kts | 237° |
| 2026-05-06 14:54 | 34.83014 | -13.84176 | 33095 ft | 434 kts | 237° |
| 2026-05-06 14:54 | 34.79287 | -13.89997 | 33096 ft | 438 kts | 237° |
| 2026-05-06 14:55 | 34.75537 | -13.95850 | 33100 ft | 439 kts | 237° |
| 2026-05-06 14:55 | 34.71783 | -14.01700 | 33098 ft | 439 kts | 237° |
| 2026-05-06 14:56 | 34.68028 | -14.07550 | 33098 ft | 439 kts | 237° |
| 2026-05-06 14:56 | 34.64272 | -14.13396 | 33100 ft | 439 kts | 237° |
| 2026-05-06 14:57 | 34.60507 | -14.19227 | 33098 ft | 439 kts | 237° |
| 2026-05-06 14:57 | 34.56736 | -14.25068 | 33103 ft | 441 kts | 237° |
| 2026-05-06 14:58 | 34.52946 | -14.30933 | 33103 ft | 442 kts | 237° |
| 2026-05-06 14:58 | 34.49152 | -14.36793 | 33106 ft | 442 kts | 237° |
| 2026-05-06 14:59 | 34.45348 | -14.42651 | 33103 ft | 442 kts | 237° |
| 2026-05-06 14:59 | 34.41542 | -14.48503 | 33107 ft | 442 kts | 237° |
| 2026-05-06 15:00 | 34.37731 | -14.54354 | 33108 ft | 442 kts | 237° |
| 2026-05-06 15:00 | 34.33927 | -14.60202 | 33110 ft | 443 kts | 237° |
| 2026-05-06 15:01 | 34.30098 | -14.66065 | 33111 ft | 445 kts | 237° |
| 2026-05-06 15:01 | 34.26259 | -14.71927 | 33109 ft | 445 kts | 237° |
| 2026-05-06 15:02 | 34.22415 | -14.77792 | 33109 ft | 445 kts | 237° |
| 2026-05-06 15:02 | 34.18573 | -14.83651 | 33109 ft | 445 kts | 237° |
| 2026-05-06 15:03 | 34.14727 | -14.89507 | 33109 ft | 445 kts | 237° |
| 2026-05-06 15:03 | 34.10873 | -14.95356 | 33091 ft | 446 kts | 237° |
| 2026-05-06 15:04 | 34.07006 | -15.01233 | 33108 ft | 448 kts | 237° |
| 2026-05-06 15:04 | 34.03128 | -15.07110 | 33109 ft | 448 kts | 237° |
| 2026-05-06 15:05 | 33.99249 | -15.12972 | 33107 ft | 448 kts | 237° |
| 2026-05-06 15:05 | 33.95360 | -15.18834 | 33107 ft | 448 kts | 237° |
| 2026-05-06 15:06 | 33.91471 | -15.24686 | 33106 ft | 448 kts | 237° |
| 2026-05-06 15:06 | 33.87574 | -15.30540 | 33107 ft | 448 kts | 237° |
| 2026-05-06 15:07 | 33.83680 | -15.36387 | 33119 ft | 448 kts | 237° |
| 2026-05-06 15:07 | 33.79878 | -15.42068 | 32702 ft | 420 kts | 237° |
| 2026-05-06 15:07 | 33.78040 | -15.44810 | 31439 ft | 424 kts | 237° |
| 2026-05-06 15:08 | 33.76195 | -15.47581 | 30341 ft | 425 kts | 238° |
| 2026-05-06 15:08 | 33.74351 | -15.50349 | 29448 ft | 423 kts | 237° |
| 2026-05-06 15:08 | 33.72525 | -15.53079 | 29063 ft | 416 kts | 237° |
| 2026-05-06 15:08 | 33.70722 | -15.55767 | 28602 ft | 410 kts | 237° |
| 2026-05-06 15:09 | 33.68941 | -15.58418 | 28151 ft | 405 kts | 237° |
| 2026-05-06 15:09 | 33.67184 | -15.61036 | 27700 ft | 401 kts | 237° |
| 2026-05-06 15:09 | 33.65446 | -15.63627 | 27255 ft | 396 kts | 237° |
| 2026-05-06 15:09 | 33.63724 | -15.66190 | 26808 ft | 393 kts | 237° |
| 2026-05-06 15:10 | 33.62015 | -15.68731 | 26349 ft | 390 kts | 237° |
| 2026-05-06 15:10 | 33.60319 | -15.71253 | 25886 ft | 387 kts | 237° |
| 2026-05-06 15:10 | 33.58633 | -15.73758 | 25426 ft | 385 kts | 237° |
| 2026-05-06 15:10 | 33.56955 | -15.76253 | 24956 ft | 383 kts | 237° |
| 2026-05-06 15:11 | 33.55225 | -15.78686 | 24489 ft | 385 kts | 230° |
| 2026-05-06 15:11 | 33.53319 | -15.80934 | 24002 ft | 384 kts | 230° |
| 2026-05-06 15:11 | 33.51413 | -15.83173 | 23494 ft | 383 kts | 229° |
| 2026-05-06 15:11 | 33.49517 | -15.85395 | 22992 ft | 380 kts | 229° |
| 2026-05-06 15:12 | 33.47630 | -15.87596 | 22515 ft | 377 kts | 229° |
| 2026-05-06 15:12 | 33.45757 | -15.89774 | 22064 ft | 374 kts | 229° |
| 2026-05-06 15:12 | 33.43901 | -15.91940 | 21609 ft | 371 kts | 229° |
| 2026-05-06 15:12 | 33.42065 | -15.94088 | 21149 ft | 368 kts | 229° |
| 2026-05-06 15:13 | 33.40242 | -15.96220 | 20720 ft | 365 kts | 229° |
| 2026-05-06 15:13 | 33.38431 | -15.98337 | 20279 ft | 363 kts | 229° |
| 2026-05-06 15:13 | 33.36634 | -16.00440 | 19837 ft | 361 kts | 229° |
| 2026-05-06 15:13 | 33.34848 | -16.02531 | 19415 ft | 359 kts | 228° |
| 2026-05-06 15:14 | 33.33066 | -16.04611 | 18985 ft | 357 kts | 228° |
| 2026-05-06 15:14 | 33.31289 | -16.06680 | 18564 ft | 356 kts | 228° |
| 2026-05-06 15:14 | 33.29518 | -16.08741 | 18099 ft | 355 kts | 228° |
| 2026-05-06 15:14 | 33.27758 | -16.10788 | 17678 ft | 352 kts | 228° |
| 2026-05-06 15:15 | 33.26011 | -16.12818 | 17262 ft | 349 kts | 228° |
| 2026-05-06 15:15 | 33.24278 | -16.14834 | 16858 ft | 346 kts | 228° |
| 2026-05-06 15:15 | 33.22560 | -16.16834 | 16456 ft | 344 kts | 228° |
| 2026-05-06 15:15 | 33.20853 | -16.18820 | 16061 ft | 342 kts | 227° |
| 2026-05-06 15:16 | 33.19156 | -16.20794 | 15673 ft | 340 kts | 227° |
| 2026-05-06 15:16 | 33.17469 | -16.22756 | 15282 ft | 338 kts | 227° |
| 2026-05-06 15:16 | 33.15788 | -16.24704 | 14894 ft | 336 kts | 227° |
| 2026-05-06 15:16 | 33.14114 | -16.26638 | 14511 ft | 334 kts | 227° |
| 2026-05-06 15:17 | 33.12449 | -16.28563 | 14123 ft | 333 kts | 227° |
| 2026-05-06 15:17 | 33.10789 | -16.30481 | 13722 ft | 331 kts | 227° |
| 2026-05-06 15:17 | 33.09139 | -16.32387 | 13324 ft | 329 kts | 227° |
| 2026-05-06 15:17 | 33.07504 | -16.34276 | 12937 ft | 327 kts | 227° |
| 2026-05-06 15:18 | 33.05878 | -16.36158 | 12550 ft | 324 kts | 227° |
| 2026-05-06 15:18 | 33.04261 | -16.38017 | 12182 ft | 322 kts | 226° |
| 2026-05-06 15:18 | 33.02649 | -16.39870 | 11632 ft | 321 kts | 227° |
| 2026-05-06 15:18 | 33.01049 | -16.41717 | 10866 ft | 319 kts | 226° |
| 2026-05-06 15:19 | 32.99463 | -16.43553 | 10143 ft | 317 kts | 227° |
| 2026-05-06 15:19 | 32.97903 | -16.45357 | 9640 ft | 305 kts | 227° |
| 2026-05-06 15:19 | 32.96402 | -16.47084 | 9082 ft | 297 kts | 227° |
| 2026-05-06 15:19 | 32.94928 | -16.48777 | 8439 ft | 292 kts | 227° |
| 2026-05-06 15:20 | 32.93501 | -16.50421 | 7797 ft | 288 kts | 227° |
| 2026-05-06 15:20 | 32.92067 | -16.52056 | 7167 ft | 284 kts | 226° |
| 2026-05-06 15:20 | 32.90620 | -16.53632 | 6519 ft | 280 kts | 224° |
| 2026-05-06 15:20 | 32.89157 | -16.55182 | 5905 ft | 274 kts | 224° |
| 2026-05-06 15:21 | 32.87791 | -16.56615 | 5569 ft | 259 kts | 224° |
| 2026-05-06 15:21 | 32.86456 | -16.58020 | 5044 ft | 253 kts | 225° |
| 2026-05-06 15:21 | 32.85138 | -16.59357 | 4912 ft | 251 kts | 218° |
| 2026-05-06 15:21 | 32.83691 | -16.60566 | 4289 ft | 256 kts | 218° |
| 2026-05-06 15:22 | 32.82221 | -16.61780 | 3624 ft | 257 kts | 217° |
| 2026-05-06 15:22 | 32.80789 | -16.62960 | 3333 ft | 243 kts | 216° |
| 2026-05-06 15:22 | 32.79436 | -16.64075 | 3189 ft | 235 kts | 217° |
| 2026-05-06 15:22 | 32.78529 | -16.64824 | 3111 ft | 235 kts | 217° |
| 2026-05-06 15:23 | 32.77193 | -16.65929 | 2995 ft | 229 kts | 218° |
| 2026-05-06 15:23 | 32.75906 | -16.66994 | 2667 ft | 228 kts | 217° |
| 2026-05-06 15:23 | 32.74575 | -16.68098 | 2186 ft | 239 kts | 216° |
| 2026-05-06 15:23 | 32.73213 | -16.69221 | 2002 ft | 233 kts | 216° |
| 2026-05-06 15:24 | 32.71929 | -16.70277 | 2006 ft | 217 kts | 215° |
| 2026-05-06 15:24 | 32.70754 | -16.71244 | 2026 ft | 196 kts | 215° |
| 2026-05-06 15:24 | 32.69702 | -16.72110 | 2000 ft | 172 kts | 217° |
| 2026-05-06 15:24 | 32.68776 | -16.72872 | 2012 ft | 157 kts | 217° |
| 2026-05-06 15:25 | 32.67873 | -16.73577 | 2012 ft | 153 kts | 215° |
| 2026-05-06 15:25 | 32.67002 | -16.74306 | 1920 ft | 150 kts | 217° |
| 2026-05-06 15:25 | 32.66163 | -16.75054 | 1653 ft | 150 kts | 218° |
| 2026-05-06 15:25 | 32.65532 | -16.75979 | 1514 ft | 145 kts | 252° |
| 2026-05-06 15:26 | 32.65408 | -16.77150 | 1350 ft | 147 kts | 276° |
| 2026-05-06 15:26 | 32.65592 | -16.78309 | 1184 ft | 140 kts | 296° |
| 2026-05-06 15:26 | 32.66047 | -16.79308 | 1009 ft | 136 kts | 314° |
| 2026-05-06 15:26 | 32.66774 | -16.79961 | 797 ft | 129 kts | 348° |
| 2026-05-06 15:27 | 32.67636 | -16.79794 | 680 ft | 132 kts | 25° |
| 2026-05-06 15:27 | 32.68358 | -16.79133 | 393 ft | 131 kts | 44° |
| 2026-05-06 15:27 | 32.68992 | -16.78378 | 174 ft | 127 kts | 40° |
| 2026-05-06 15:27 | 32.69544 | -16.77738 | 174 ft | 89 kts | 45° |
| 2026-05-06 15:28 | 32.69884 | -16.77335 | 192 ft | 56 kts | 45° |
| 2026-05-06 15:28 | 32.69968 | -16.77209 | 188 ft | 4 kts | 110° |
| 2026-05-06 15:28 | 32.69954 | -16.77187 | 192 ft | 3 kts | 143° |
| 2026-05-06 15:28 | 32.69864 | -16.77182 | 194 ft | 36 kts | 202° |
| 2026-05-06 15:29 | 32.69471 | -16.77646 | 169 ft | 87 kts | 229° |
| 2026-05-06 15:29 | 32.69323 | -16.77807 | 169 ft | 1 kts | 147° |
| 2026-05-06 15:29 | 32.69348 | -16.77761 | 169 ft | 14 kts | 40° |
| 2026-05-06 15:29 | 32.69334 | -16.77687 | 169 ft | 6 kts | 139° |
| 2026-05-06 15:30 | 32.69334 | -16.77686 | 169 ft | 0 kts | 138° |